sensor_id;sensor_type;location;lat;lon;timestamp;P1;durP1;ratioP1;P2;durP2;ratioP2
50291;SDS011;36190;54.980;73.388;2022-07-21T00:00:18;25.95;;;19.27;;
50291;SDS011;36190;54.980;73.388;2022-07-21T00:02:46;25.42;;;19.08;;
50291;SDS011;36190;54.980;73.388;2022-07-21T00:05:14;26.17;;;19.27;;
50291;SDS011;36190;54.980;73.388;2022-07-21T00:07:43;27.30;;;19.25;;
50291;SDS011;36190;54.980;73.388;2022-07-21T00:10:11;23.50;;;18.20;;
50291;SDS011;36190;54.980;73.388;2022-07-21T00:12:39;26.88;;;19.50;;
50291;SDS011;36190;54.980;73.388;2022-07-21T00:15:07;25.50;;;18.77;;
50291;SDS011;36190;54.980;73.388;2022-07-21T00:17:36;28.25;;;19.42;;
50291;SDS011;36190;54.980;73.388;2022-07-21T00:20:04;25.65;;;19.08;;
50291;SDS011;36190;54.980;73.388;2022-07-21T00:22:35;24.55;;;18.70;;
50291;SDS011;36190;54.980;73.388;2022-07-21T00:25:05;26.05;;;19.42;;
50291;SDS011;36190;54.980;73.388;2022-07-21T00:27:33;27.05;;;20.25;;
50291;SDS011;36190;54.980;73.388;2022-07-21T00:30:01;27.27;;;19.70;;
50291;SDS011;36190;54.980;73.388;2022-07-21T00:32:29;26.38;;;19.42;;
50291;SDS011;36190;54.980;73.388;2022-07-21T00:34:56;24.67;;;18.95;;
50291;SDS011;36190;54.980;73.388;2022-07-21T00:37:24;25.40;;;19.63;;
50291;SDS011;36190;54.980;73.388;2022-07-21T00:39:52;28.38;;;20.08;;
50291;SDS011;36190;54.980;73.388;2022-07-21T00:42:22;25.05;;;19.23;;
50291;SDS011;36190;54.980;73.388;2022-07-21T00:44:51;26.55;;;19.83;;
50291;SDS011;36190;54.980;73.388;2022-07-21T00:47:19;25.55;;;20.02;;
50291;SDS011;36190;54.980;73.388;2022-07-21T00:49:46;25.25;;;19.52;;
50291;SDS011;36190;54.980;73.388;2022-07-21T00:52:14;24.27;;;19.23;;
50291;SDS011;36190;54.980;73.388;2022-07-21T00:54:41;26.08;;;19.30;;
50291;SDS011;36190;54.980;73.388;2022-07-21T00:57:10;25.85;;;19.17;;
50291;SDS011;36190;54.980;73.388;2022-07-21T00:59:39;25.88;;;18.90;;
50291;SDS011;36190;54.980;73.388;2022-07-21T01:02:07;25.90;;;19.25;;
50291;SDS011;36190;54.980;73.388;2022-07-21T01:04:35;25.70;;;19.52;;
50291;SDS011;36190;54.980;73.388;2022-07-21T01:07:03;25.20;;;19.08;;
50291;SDS011;36190;54.980;73.388;2022-07-21T01:09:32;26.58;;;19.05;;
50291;SDS011;36190;54.980;73.388;2022-07-21T01:12:01;25.63;;;18.85;;
50291;SDS011;36190;54.980;73.388;2022-07-21T01:14:29;26.13;;;19.77;;
50291;SDS011;36190;54.980;73.388;2022-07-21T01:16:58;27.23;;;18.83;;
50291;SDS011;36190;54.980;73.388;2022-07-21T01:19:28;27.83;;;19.88;;
50291;SDS011;36190;54.980;73.388;2022-07-21T01:21:57;24.08;;;18.73;;
50291;SDS011;36190;54.980;73.388;2022-07-21T01:24:24;26.63;;;19.05;;
50291;SDS011;36190;54.980;73.388;2022-07-21T01:26:52;26.13;;;19.60;;
50291;SDS011;36190;54.980;73.388;2022-07-21T01:29:20;27.92;;;18.65;;
50291;SDS011;36190;54.980;73.388;2022-07-21T01:31:48;26.92;;;19.67;;
50291;SDS011;36190;54.980;73.388;2022-07-21T01:34:16;25.02;;;19.20;;
50291;SDS011;36190;54.980;73.388;2022-07-21T01:36:44;29.30;;;19.30;;
50291;SDS011;36190;54.980;73.388;2022-07-21T01:39:13;29.67;;;19.70;;
50291;SDS011;36190;54.980;73.388;2022-07-21T01:41:57;25.42;;;18.80;;
50291;SDS011;36190;54.980;73.388;2022-07-21T01:44:25;27.00;;;18.92;;
50291;SDS011;36190;54.980;73.388;2022-07-21T01:46:53;29.45;;;19.67;;
50291;SDS011;36190;54.980;73.388;2022-07-21T01:49:21;24.40;;;18.67;;
50291;SDS011;36190;54.980;73.388;2022-07-21T01:51:49;27.20;;;19.08;;
50291;SDS011;36190;54.980;73.388;2022-07-21T01:54:18;25.55;;;19.13;;
50291;SDS011;36190;54.980;73.388;2022-07-21T01:56:45;26.17;;;18.63;;
50291;SDS011;36190;54.980;73.388;2022-07-21T01:59:13;24.42;;;18.90;;
50291;SDS011;36190;54.980;73.388;2022-07-21T02:01:40;25.60;;;18.00;;
50291;SDS011;36190;54.980;73.388;2022-07-21T02:04:07;24.55;;;18.77;;
50291;SDS011;36190;54.980;73.388;2022-07-21T02:06:35;25.00;;;17.75;;
50291;SDS011;36190;54.980;73.388;2022-07-21T02:09:02;25.10;;;19.08;;
50291;SDS011;36190;54.980;73.388;2022-07-21T02:11:33;24.58;;;18.48;;
50291;SDS011;36190;54.980;73.388;2022-07-21T02:14:01;33.38;;;19.30;;
50291;SDS011;36190;54.980;73.388;2022-07-21T02:16:28;25.23;;;19.73;;
50291;SDS011;36190;54.980;73.388;2022-07-21T02:18:56;25.55;;;18.33;;
50291;SDS011;36190;54.980;73.388;2022-07-21T02:21:23;26.05;;;19.35;;
50291;SDS011;36190;54.980;73.388;2022-07-21T02:23:51;24.95;;;17.85;;
50291;SDS011;36190;54.980;73.388;2022-07-21T02:26:18;26.88;;;18.73;;
50291;SDS011;36190;54.980;73.388;2022-07-21T02:28:47;25.48;;;18.67;;
50291;SDS011;36190;54.980;73.388;2022-07-21T02:31:15;27.48;;;19.65;;
50291;SDS011;36190;54.980;73.388;2022-07-21T02:33:42;23.75;;;18.17;;
50291;SDS011;36190;54.980;73.388;2022-07-21T02:36:09;30.45;;;20.10;;
50291;SDS011;36190;54.980;73.388;2022-07-21T02:38:37;28.35;;;19.85;;
50291;SDS011;36190;54.980;73.388;2022-07-21T02:41:04;30.35;;;21.70;;
50291;SDS011;36190;54.980;73.388;2022-07-21T02:43:32;28.27;;;18.65;;
50291;SDS011;36190;54.980;73.388;2022-07-21T02:46:01;34.63;;;23.40;;
50291;SDS011;36190;54.980;73.388;2022-07-21T02:48:28;38.50;;;24.00;;
50291;SDS011;36190;54.980;73.388;2022-07-21T02:50:55;39.35;;;25.20;;
50291;SDS011;36190;54.980;73.388;2022-07-21T02:53:23;49.38;;;29.15;;
50291;SDS011;36190;54.980;73.388;2022-07-21T02:55:51;45.58;;;26.45;;
50291;SDS011;36190;54.980;73.388;2022-07-21T02:58:19;48.55;;;30.00;;
50291;SDS011;36190;54.980;73.388;2022-07-21T03:00:49;44.83;;;28.45;;
50291;SDS011;36190;54.980;73.388;2022-07-21T03:03:20;43.15;;;29.30;;
50291;SDS011;36190;54.980;73.388;2022-07-21T03:05:48;33.55;;;25.52;;
50291;SDS011;36190;54.980;73.388;2022-07-21T03:08:16;30.85;;;21.85;;
50291;SDS011;36190;54.980;73.388;2022-07-21T03:10:44;24.13;;;18.50;;
50291;SDS011;36190;54.980;73.388;2022-07-21T03:13:12;24.55;;;18.63;;
50291;SDS011;36190;54.980;73.388;2022-07-21T03:15:39;22.92;;;18.38;;
50291;SDS011;36190;54.980;73.388;2022-07-21T03:18:07;23.52;;;16.25;;
50291;SDS011;36190;54.980;73.388;2022-07-21T03:20:37;20.33;;;15.65;;
50291;SDS011;36190;54.980;73.388;2022-07-21T03:23:05;20.15;;;15.93;;
50291;SDS011;36190;54.980;73.388;2022-07-21T03:25:33;22.17;;;15.55;;
50291;SDS011;36190;54.980;73.388;2022-07-21T03:28:01;19.63;;;15.23;;
50291;SDS011;36190;54.980;73.388;2022-07-21T03:30:29;20.63;;;15.98;;
50291;SDS011;36190;54.980;73.388;2022-07-21T03:32:57;21.60;;;15.88;;
50291;SDS011;36190;54.980;73.388;2022-07-21T03:35:24;22.77;;;15.80;;
50291;SDS011;36190;54.980;73.388;2022-07-21T03:37:54;25.13;;;16.90;;
50291;SDS011;36190;54.980;73.388;2022-07-21T03:40:25;23.70;;;17.05;;
50291;SDS011;36190;54.980;73.388;2022-07-21T03:42:54;23.55;;;17.17;;
50291;SDS011;36190;54.980;73.388;2022-07-21T03:45:22;22.85;;;16.30;;
50291;SDS011;36190;54.980;73.388;2022-07-21T03:47:51;23.25;;;16.98;;
50291;SDS011;36190;54.980;73.388;2022-07-21T03:50:19;23.48;;;16.55;;
50291;SDS011;36190;54.980;73.388;2022-07-21T03:52:46;23.90;;;16.48;;
50291;SDS011;36190;54.980;73.388;2022-07-21T03:55:15;25.90;;;17.83;;
50291;SDS011;36190;54.980;73.388;2022-07-21T03:57:44;22.38;;;17.60;;
50291;SDS011;36190;54.980;73.388;2022-07-21T04:00:13;25.58;;;17.98;;
50291;SDS011;36190;54.980;73.388;2022-07-21T04:02:43;25.00;;;18.25;;
50291;SDS011;36190;54.980;73.388;2022-07-21T04:05:11;24.67;;;18.08;;
50291;SDS011;36190;54.980;73.388;2022-07-21T04:07:40;30.48;;;18.85;;
50291;SDS011;36190;54.980;73.388;2022-07-21T04:10:10;27.30;;;17.55;;
50291;SDS011;36190;54.980;73.388;2022-07-21T04:12:40;30.85;;;19.60;;
50291;SDS011;36190;54.980;73.388;2022-07-21T04:15:08;27.60;;;18.00;;
50291;SDS011;36190;54.980;73.388;2022-07-21T04:17:36;28.98;;;19.25;;
50291;SDS011;36190;54.980;73.388;2022-07-21T04:20:04;29.95;;;19.08;;
50291;SDS011;36190;54.980;73.388;2022-07-21T04:22:33;25.63;;;19.42;;
50291;SDS011;36190;54.980;73.388;2022-07-21T04:25:02;30.67;;;20.83;;
50291;SDS011;36190;54.980;73.388;2022-07-21T04:27:30;35.60;;;20.10;;
50291;SDS011;36190;54.980;73.388;2022-07-21T04:29:59;42.67;;;22.70;;
50291;SDS011;36190;54.980;73.388;2022-07-21T04:32:26;35.35;;;21.33;;
50291;SDS011;36190;54.980;73.388;2022-07-21T04:34:54;32.10;;;19.67;;
50291;SDS011;36190;54.980;73.388;2022-07-21T04:37:21;28.25;;;18.85;;
50291;SDS011;36190;54.980;73.388;2022-07-21T04:39:49;34.58;;;20.38;;
50291;SDS011;36190;54.980;73.388;2022-07-21T04:42:16;58.65;;;25.40;;
50291;SDS011;36190;54.980;73.388;2022-07-21T04:44:43;42.67;;;22.90;;
50291;SDS011;36190;54.980;73.388;2022-07-21T04:47:12;48.67;;;21.92;;
50291;SDS011;36190;54.980;73.388;2022-07-21T04:49:40;43.35;;;20.77;;
50291;SDS011;36190;54.980;73.388;2022-07-21T04:52:07;47.15;;;22.98;;
50291;SDS011;36190;54.980;73.388;2022-07-21T04:54:35;56.20;;;23.83;;
50291;SDS011;36190;54.980;73.388;2022-07-21T04:57:02;43.03;;;21.35;;
50291;SDS011;36190;54.980;73.388;2022-07-21T04:59:31;37.10;;;19.70;;
50291;SDS011;36190;54.980;73.388;2022-07-21T05:02:00;36.72;;;20.35;;
50291;SDS011;36190;54.980;73.388;2022-07-21T05:04:29;35.63;;;19.67;;
50291;SDS011;36190;54.980;73.388;2022-07-21T05:06:56;38.72;;;20.75;;
50291;SDS011;36190;54.980;73.388;2022-07-21T05:09:24;39.47;;;19.45;;
50291;SDS011;36190;54.980;73.388;2022-07-21T05:11:51;35.13;;;18.67;;
50291;SDS011;36190;54.980;73.388;2022-07-21T05:14:18;26.08;;;16.75;;
50291;SDS011;36190;54.980;73.388;2022-07-21T05:16:46;22.10;;;16.02;;
50291;SDS011;36190;54.980;73.388;2022-07-21T05:19:13;26.90;;;17.10;;
50291;SDS011;36190;54.980;73.388;2022-07-21T05:21:42;24.45;;;15.50;;
50291;SDS011;36190;54.980;73.388;2022-07-21T05:24:10;18.27;;;14.10;;
50291;SDS011;36190;54.980;73.388;2022-07-21T05:26:38;17.73;;;13.73;;
50291;SDS011;36190;54.980;73.388;2022-07-21T05:29:05;21.55;;;13.93;;
50291;SDS011;36190;54.980;73.388;2022-07-21T05:31:32;19.38;;;14.23;;
50291;SDS011;36190;54.980;73.388;2022-07-21T05:34:00;20.63;;;14.77;;
50291;SDS011;36190;54.980;73.388;2022-07-21T05:36:27;20.52;;;14.48;;
50291;SDS011;36190;54.980;73.388;2022-07-21T05:38:56;19.58;;;14.32;;
50291;SDS011;36190;54.980;73.388;2022-07-21T05:41:23;21.02;;;14.20;;
50291;SDS011;36190;54.980;73.388;2022-07-21T05:43:51;20.50;;;13.85;;
50291;SDS011;36190;54.980;73.388;2022-07-21T05:46:18;19.08;;;14.00;;
50291;SDS011;36190;54.980;73.388;2022-07-21T05:48:45;18.02;;;13.43;;
50291;SDS011;36190;54.980;73.388;2022-07-21T05:51:13;19.50;;;13.43;;
50291;SDS011;36190;54.980;73.388;2022-07-21T05:53:40;15.02;;;11.60;;
50291;SDS011;36190;54.980;73.388;2022-07-21T05:56:09;20.08;;;12.95;;
50291;SDS011;36190;54.980;73.388;2022-07-21T05:58:37;20.52;;;12.80;;
50291;SDS011;36190;54.980;73.388;2022-07-21T06:01:04;19.65;;;13.10;;
50291;SDS011;36190;54.980;73.388;2022-07-21T06:03:34;16.98;;;12.82;;
50291;SDS011;36190;54.980;73.388;2022-07-21T06:06:02;19.20;;;12.15;;
50291;SDS011;36190;54.980;73.388;2022-07-21T06:08:29;17.25;;;12.23;;
50291;SDS011;36190;54.980;73.388;2022-07-21T06:10:57;17.95;;;12.10;;
50291;SDS011;36190;54.980;73.388;2022-07-21T06:13:26;16.42;;;12.35;;
50291;SDS011;36190;54.980;73.388;2022-07-21T06:15:53;15.07;;;11.90;;
50291;SDS011;36190;54.980;73.388;2022-07-21T06:18:20;17.35;;;11.98;;
50291;SDS011;36190;54.980;73.388;2022-07-21T06:20:48;17.48;;;12.30;;
50291;SDS011;36190;54.980;73.388;2022-07-21T06:23:15;15.48;;;12.00;;
50291;SDS011;36190;54.980;73.388;2022-07-21T06:25:43;18.85;;;13.10;;
50291;SDS011;36190;54.980;73.388;2022-07-21T06:28:10;18.45;;;12.63;;
50291;SDS011;36190;54.980;73.388;2022-07-21T06:30:39;16.15;;;11.95;;
50291;SDS011;36190;54.980;73.388;2022-07-21T06:33:07;21.63;;;12.63;;
50291;SDS011;36190;54.980;73.388;2022-07-21T06:35:34;18.45;;;12.18;;
50291;SDS011;36190;54.980;73.388;2022-07-21T06:38:01;16.10;;;10.80;;
50291;SDS011;36190;54.980;73.388;2022-07-21T06:40:29;15.65;;;11.02;;
50291;SDS011;36190;54.980;73.388;2022-07-21T06:42:57;16.05;;;10.68;;
50291;SDS011;36190;54.980;73.388;2022-07-21T06:45:24;15.95;;;11.38;;
50291;SDS011;36190;54.980;73.388;2022-07-21T06:48:00;15.68;;;11.10;;
50291;SDS011;36190;54.980;73.388;2022-07-21T06:50:28;17.70;;;10.68;;
50291;SDS011;36190;54.980;73.388;2022-07-21T06:52:55;15.07;;;10.57;;
50291;SDS011;36190;54.980;73.388;2022-07-21T06:55:23;14.55;;;9.45;;
50291;SDS011;36190;54.980;73.388;2022-07-21T06:57:50;16.77;;;9.35;;
50291;SDS011;36190;54.980;73.388;2022-07-21T07:00:18;14.98;;;9.70;;
50291;SDS011;36190;54.980;73.388;2022-07-21T07:02:46;13.02;;;9.27;;
50291;SDS011;36190;54.980;73.388;2022-07-21T07:05:14;12.93;;;8.25;;
50291;SDS011;36190;54.980;73.388;2022-07-21T07:07:42;16.27;;;8.90;;
50291;SDS011;36190;54.980;73.388;2022-07-21T07:10:10;14.18;;;8.88;;
50291;SDS011;36190;54.980;73.388;2022-07-21T07:12:37;12.90;;;8.30;;
50291;SDS011;36190;54.980;73.388;2022-07-21T07:15:05;13.05;;;8.57;;
50291;SDS011;36190;54.980;73.388;2022-07-21T07:17:33;12.38;;;7.72;;
50291;SDS011;36190;54.980;73.388;2022-07-21T07:20:00;14.88;;;8.45;;
50291;SDS011;36190;54.980;73.388;2022-07-21T07:22:31;13.10;;;8.07;;
50291;SDS011;36190;54.980;73.388;2022-07-21T07:24:59;13.90;;;8.85;;
50291;SDS011;36190;54.980;73.388;2022-07-21T07:27:26;16.58;;;9.63;;
50291;SDS011;36190;54.980;73.388;2022-07-21T07:29:54;14.32;;;9.40;;
50291;SDS011;36190;54.980;73.388;2022-07-21T07:32:21;20.13;;;10.82;;
50291;SDS011;36190;54.980;73.388;2022-07-21T07:34:48;15.88;;;9.82;;
50291;SDS011;36190;54.980;73.388;2022-07-21T07:37:16;25.30;;;11.57;;
50291;SDS011;36190;54.980;73.388;2022-07-21T07:39:44;24.58;;;11.27;;
50291;SDS011;36190;54.980;73.388;2022-07-21T07:42:12;15.70;;;9.00;;
50291;SDS011;36190;54.980;73.388;2022-07-21T07:44:39;12.38;;;7.95;;
50291;SDS011;36190;54.980;73.388;2022-07-21T07:47:07;12.60;;;7.93;;
50291;SDS011;36190;54.980;73.388;2022-07-21T07:49:34;12.23;;;8.35;;
50291;SDS011;36190;54.980;73.388;2022-07-21T07:52:01;15.48;;;9.23;;
50291;SDS011;36190;54.980;73.388;2022-07-21T07:54:29;15.20;;;9.13;;
50291;SDS011;36190;54.980;73.388;2022-07-21T07:56:58;15.10;;;9.18;;
50291;SDS011;36190;54.980;73.388;2022-07-21T07:59:25;15.93;;;9.10;;
50291;SDS011;36190;54.980;73.388;2022-07-21T08:01:53;15.18;;;9.40;;
50291;SDS011;36190;54.980;73.388;2022-07-21T08:04:20;17.38;;;9.40;;
50291;SDS011;36190;54.980;73.388;2022-07-21T08:06:48;18.77;;;10.70;;
50291;SDS011;36190;54.980;73.388;2022-07-21T08:09:15;17.05;;;9.82;;
50291;SDS011;36190;54.980;73.388;2022-07-21T08:11:44;19.15;;;10.23;;
50291;SDS011;36190;54.980;73.388;2022-07-21T08:14:14;23.08;;;9.98;;
50291;SDS011;36190;54.980;73.388;2022-07-21T08:16:42;17.85;;;10.13;;
50291;SDS011;36190;54.980;73.388;2022-07-21T08:19:10;17.60;;;9.95;;
50291;SDS011;36190;54.980;73.388;2022-07-21T08:21:38;17.63;;;10.45;;
50291;SDS011;36190;54.980;73.388;2022-07-21T08:24:05;19.83;;;11.20;;
50291;SDS011;36190;54.980;73.388;2022-07-21T08:26:33;16.83;;;11.32;;
50291;SDS011;36190;54.980;73.388;2022-07-21T08:29:01;20.13;;;11.80;;
50291;SDS011;36190;54.980;73.388;2022-07-21T08:31:30;18.65;;;10.95;;
50291;SDS011;36190;54.980;73.388;2022-07-21T08:33:57;18.13;;;10.98;;
50291;SDS011;36190;54.980;73.388;2022-07-21T08:36:24;15.98;;;10.80;;
50291;SDS011;36190;54.980;73.388;2022-07-21T08:38:52;18.77;;;10.35;;
50291;SDS011;36190;54.980;73.388;2022-07-21T08:41:19;17.83;;;9.18;;
50291;SDS011;36190;54.980;73.388;2022-07-21T08:43:48;17.10;;;7.00;;
50291;SDS011;36190;54.980;73.388;2022-07-21T08:46:16;11.23;;;5.07;;
50291;SDS011;36190;54.980;73.388;2022-07-21T08:48:46;13.57;;;5.40;;
50291;SDS011;36190;54.980;73.388;2022-07-21T08:51:14;13.75;;;5.85;;
50291;SDS011;36190;54.980;73.388;2022-07-21T08:53:43;14.70;;;6.15;;
50291;SDS011;36190;54.980;73.388;2022-07-21T08:56:11;13.68;;;6.57;;
50291;SDS011;36190;54.980;73.388;2022-07-21T08:58:38;14.25;;;6.28;;
50291;SDS011;36190;54.980;73.388;2022-07-21T09:01:05;13.05;;;6.45;;
50291;SDS011;36190;54.980;73.388;2022-07-21T09:03:33;13.43;;;6.15;;
50291;SDS011;36190;54.980;73.388;2022-07-21T09:06:03;14.13;;;6.53;;
50291;SDS011;36190;54.980;73.388;2022-07-21T09:08:34;13.50;;;6.07;;
50291;SDS011;36190;54.980;73.388;2022-07-21T09:11:12;15.60;;;6.32;;
50291;SDS011;36190;54.980;73.388;2022-07-21T09:13:43;14.50;;;6.30;;
50291;SDS011;36190;54.980;73.388;2022-07-21T09:16:11;11.95;;;6.80;;
50291;SDS011;36190;54.980;73.388;2022-07-21T09:18:49;13.98;;;7.60;;
50291;SDS011;36190;54.980;73.388;2022-07-21T09:21:19;12.45;;;7.18;;
50291;SDS011;36190;54.980;73.388;2022-07-21T09:23:46;11.73;;;7.90;;
50291;SDS011;36190;54.980;73.388;2022-07-21T09:26:16;14.27;;;8.98;;
50291;SDS011;36190;54.980;73.388;2022-07-21T09:28:43;12.48;;;7.57;;
50291;SDS011;36190;54.980;73.388;2022-07-21T09:31:11;12.93;;;7.63;;
50291;SDS011;36190;54.980;73.388;2022-07-21T09:33:39;14.38;;;8.18;;
50291;SDS011;36190;54.980;73.388;2022-07-21T09:36:09;16.20;;;8.93;;
50291;SDS011;36190;54.980;73.388;2022-07-21T09:38:42;14.88;;;8.48;;
50291;SDS011;36190;54.980;73.388;2022-07-21T09:41:16;16.38;;;8.93;;
50291;SDS011;36190;54.980;73.388;2022-07-21T09:43:46;16.80;;;8.43;;
50291;SDS011;36190;54.980;73.388;2022-07-21T09:46:15;15.57;;;7.70;;
50291;SDS011;36190;54.980;73.388;2022-07-21T09:48:43;17.45;;;9.63;;
50291;SDS011;36190;54.980;73.388;2022-07-21T09:54:04;11.65;;;7.38;;
50291;SDS011;36190;54.980;73.388;2022-07-21T09:56:34;12.68;;;7.43;;
50291;SDS011;36190;54.980;73.388;2022-07-21T09:59:03;11.02;;;5.90;;
50291;SDS011;36190;54.980;73.388;2022-07-21T10:01:32;10.77;;;6.28;;
50291;SDS011;36190;54.980;73.388;2022-07-21T10:04:00;13.77;;;6.50;;
50291;SDS011;36190;54.980;73.388;2022-07-21T10:06:29;12.27;;;6.07;;
50291;SDS011;36190;54.980;73.388;2022-07-21T10:08:59;11.77;;;6.03;;
50291;SDS011;36190;54.980;73.388;2022-07-21T10:11:30;8.93;;;5.53;;
50291;SDS011;36190;54.980;73.388;2022-07-21T10:13:57;13.43;;;5.78;;
50291;SDS011;36190;54.980;73.388;2022-07-21T10:16:24;11.10;;;5.18;;
50291;SDS011;36190;54.980;73.388;2022-07-21T10:18:54;8.85;;;4.50;;
50291;SDS011;36190;54.980;73.388;2022-07-21T10:21:39;8.75;;;4.30;;
50291;SDS011;36190;54.980;73.388;2022-07-21T10:24:12;7.53;;;3.85;;
50291;SDS011;36190;54.980;73.388;2022-07-21T10:32:24;8.90;;;4.55;;
50291;SDS011;36190;54.980;73.388;2022-07-21T10:34:53;7.68;;;4.22;;
50291;SDS011;36190;54.980;73.388;2022-07-21T10:40:35;7.13;;;4.20;;
50291;SDS011;36190;54.980;73.388;2022-07-21T10:49:05;11.77;;;4.43;;
50291;SDS011;36190;54.980;73.388;2022-07-21T10:51:34;9.27;;;4.15;;
50291;SDS011;36190;54.980;73.388;2022-07-21T10:54:18;8.85;;;4.90;;
50291;SDS011;36190;54.980;73.388;2022-07-21T11:02:54;11.60;;;4.82;;
50291;SDS011;36190;54.980;73.388;2022-07-21T11:05:22;9.27;;;4.55;;
50291;SDS011;36190;54.980;73.388;2022-07-21T11:08:13;10.20;;;5.00;;
50291;SDS011;36190;54.980;73.388;2022-07-21T11:10:43;9.60;;;4.53;;
50291;SDS011;36190;54.980;73.388;2022-07-21T11:13:12;7.40;;;4.38;;
50291;SDS011;36190;54.980;73.388;2022-07-21T11:15:46;8.38;;;4.28;;
50291;SDS011;36190;54.980;73.388;2022-07-21T11:18:18;8.75;;;4.32;;
50291;SDS011;36190;54.980;73.388;2022-07-21T11:21:00;8.65;;;4.28;;
50291;SDS011;36190;54.980;73.388;2022-07-21T11:23:39;6.95;;;4.03;;
50291;SDS011;36190;54.980;73.388;2022-07-21T11:26:09;8.23;;;4.68;;
50291;SDS011;36190;54.980;73.388;2022-07-21T11:28:37;9.52;;;4.70;;
50291;SDS011;36190;54.980;73.388;2022-07-21T11:31:08;9.20;;;4.93;;
50291;SDS011;36190;54.980;73.388;2022-07-21T11:33:40;9.52;;;4.03;;
50291;SDS011;36190;54.980;73.388;2022-07-21T11:36:10;8.55;;;4.45;;
50291;SDS011;36190;54.980;73.388;2022-07-21T11:39:01;7.15;;;4.10;;
50291;SDS011;36190;54.980;73.388;2022-07-21T11:41:31;7.78;;;4.55;;
50291;SDS011;36190;54.980;73.388;2022-07-21T11:43:58;9.52;;;4.35;;
50291;SDS011;36190;54.980;73.388;2022-07-21T11:46:27;9.02;;;4.28;;
50291;SDS011;36190;54.980;73.388;2022-07-21T11:49:04;6.68;;;4.18;;
50291;SDS011;36190;54.980;73.388;2022-07-21T11:51:32;10.75;;;5.03;;
50291;SDS011;36190;54.980;73.388;2022-07-21T11:54:00;7.10;;;4.18;;
50291;SDS011;36190;54.980;73.388;2022-07-21T11:56:27;8.13;;;4.10;;
50291;SDS011;36190;54.980;73.388;2022-07-21T11:59:09;8.02;;;4.00;;
50291;SDS011;36190;54.980;73.388;2022-07-21T12:01:53;8.00;;;4.28;;
50291;SDS011;36190;54.980;73.388;2022-07-21T12:04:29;9.07;;;4.00;;
50291;SDS011;36190;54.980;73.388;2022-07-21T12:07:01;8.85;;;3.85;;
50291;SDS011;36190;54.980;73.388;2022-07-21T12:09:30;11.20;;;3.85;;
50291;SDS011;36190;54.980;73.388;2022-07-21T12:11:59;5.88;;;3.20;;
50291;SDS011;36190;54.980;73.388;2022-07-21T12:14:44;6.07;;;3.20;;
50291;SDS011;36190;54.980;73.388;2022-07-21T12:17:15;8.15;;;3.15;;
50291;SDS011;36190;54.980;73.388;2022-07-21T12:19:44;11.75;;;3.33;;
50291;SDS011;36190;54.980;73.388;2022-07-21T12:22:11;6.15;;;2.67;;
50291;SDS011;36190;54.980;73.388;2022-07-21T12:24:55;4.60;;;2.60;;
50291;SDS011;36190;54.980;73.388;2022-07-21T12:27:24;9.20;;;2.95;;
50291;SDS011;36190;54.980;73.388;2022-07-21T12:29:51;17.63;;;5.00;;
50291;SDS011;36190;54.980;73.388;2022-07-21T12:32:43;21.30;;;5.47;;
50291;SDS011;36190;54.980;73.388;2022-07-21T12:37:53;12.55;;;4.35;;
50291;SDS011;36190;54.980;73.388;2022-07-21T12:40:29;15.15;;;4.78;;
50291;SDS011;36190;54.980;73.388;2022-07-21T12:43:05;9.23;;;3.97;;
50291;SDS011;36190;54.980;73.388;2022-07-21T12:45:44;8.85;;;4.03;;
50291;SDS011;36190;54.980;73.388;2022-07-21T12:48:16;11.52;;;4.55;;
50291;SDS011;36190;54.980;73.388;2022-07-21T12:51:02;12.55;;;4.68;;
50291;SDS011;36190;54.980;73.388;2022-07-21T12:53:32;11.48;;;4.82;;
50291;SDS011;36190;54.980;73.388;2022-07-21T12:56:01;11.73;;;4.57;;
50291;SDS011;36190;54.980;73.388;2022-07-21T12:58:28;13.35;;;4.95;;
50291;SDS011;36190;54.980;73.388;2022-07-21T13:00:56;19.02;;;4.50;;
50291;SDS011;36190;54.980;73.388;2022-07-21T13:03:25;11.93;;;4.03;;
50291;SDS011;36190;54.980;73.388;2022-07-21T13:05:54;11.05;;;4.82;;
50291;SDS011;36190;54.980;73.388;2022-07-21T13:08:22;9.02;;;3.33;;
50291;SDS011;36190;54.980;73.388;2022-07-21T13:10:49;7.82;;;3.33;;
50291;SDS011;36190;54.980;73.388;2022-07-21T13:13:17;10.52;;;3.22;;
50291;SDS011;36190;54.980;73.388;2022-07-21T13:15:44;6.53;;;3.30;;
50291;SDS011;36190;54.980;73.388;2022-07-21T13:18:11;7.18;;;3.45;;
50291;SDS011;36190;54.980;73.388;2022-07-21T13:20:40;5.93;;;3.20;;
50291;SDS011;36190;54.980;73.388;2022-07-21T13:23:08;8.57;;;3.63;;
50291;SDS011;36190;54.980;73.388;2022-07-21T13:25:36;5.93;;;3.40;;
50291;SDS011;36190;54.980;73.388;2022-07-21T13:28:03;9.45;;;3.40;;
50291;SDS011;36190;54.980;73.388;2022-07-21T13:30:31;10.57;;;3.75;;
50291;SDS011;36190;54.980;73.388;2022-07-21T13:32:58;5.03;;;3.20;;
50291;SDS011;36190;54.980;73.388;2022-07-21T13:35:26;8.55;;;3.40;;
50291;SDS011;36190;54.980;73.388;2022-07-21T13:37:55;7.88;;;3.55;;
50291;SDS011;36190;54.980;73.388;2022-07-21T13:40:23;9.10;;;3.70;;
50291;SDS011;36190;54.980;73.388;2022-07-21T13:42:51;9.10;;;4.03;;
50291;SDS011;36190;54.980;73.388;2022-07-21T13:45:19;9.48;;;3.80;;
50291;SDS011;36190;54.980;73.388;2022-07-21T13:47:46;8.07;;;3.72;;
50291;SDS011;36190;54.980;73.388;2022-07-21T13:50:14;8.50;;;3.50;;
50291;SDS011;36190;54.980;73.388;2022-07-21T13:52:41;9.32;;;3.92;;
50291;SDS011;36190;54.980;73.388;2022-07-21T13:55:10;12.50;;;4.30;;
50291;SDS011;36190;54.980;73.388;2022-07-21T13:57:37;6.28;;;3.50;;
50291;SDS011;36190;54.980;73.388;2022-07-21T14:00:06;6.88;;;3.42;;
50291;SDS011;36190;54.980;73.388;2022-07-21T14:02:35;10.73;;;3.83;;
50291;SDS011;36190;54.980;73.388;2022-07-21T14:05:04;8.48;;;3.67;;
50291;SDS011;36190;54.980;73.388;2022-07-21T14:07:32;8.02;;;3.55;;
50291;SDS011;36190;54.980;73.388;2022-07-21T14:09:59;7.28;;;4.00;;
50291;SDS011;36190;54.980;73.388;2022-07-21T14:12:28;9.40;;;3.35;;
50291;SDS011;36190;54.980;73.388;2022-07-21T14:14:55;11.32;;;3.97;;
50291;SDS011;36190;54.980;73.388;2022-07-21T14:17:23;7.13;;;3.80;;
50291;SDS011;36190;54.980;73.388;2022-07-21T14:19:50;7.88;;;3.70;;
50291;SDS011;36190;54.980;73.388;2022-07-21T14:22:18;7.60;;;3.90;;
50291;SDS011;36190;54.980;73.388;2022-07-21T14:24:46;9.32;;;4.10;;
50291;SDS011;36190;54.980;73.388;2022-07-21T14:27:33;9.85;;;4.00;;
50291;SDS011;36190;54.980;73.388;2022-07-21T14:30:01;8.80;;;3.95;;
50291;SDS011;36190;54.980;73.388;2022-07-21T14:32:28;10.80;;;4.32;;
50291;SDS011;36190;54.980;73.388;2022-07-21T14:34:56;10.55;;;4.10;;
50291;SDS011;36190;54.980;73.388;2022-07-21T14:37:24;9.82;;;4.03;;
50291;SDS011;36190;54.980;73.388;2022-07-21T14:39:52;8.95;;;4.13;;
50291;SDS011;36190;54.980;73.388;2022-07-21T14:42:19;10.57;;;4.63;;
50291;SDS011;36190;54.980;73.388;2022-07-21T14:44:50;11.95;;;5.22;;
50291;SDS011;36190;54.980;73.388;2022-07-21T14:47:17;14.02;;;6.07;;
50291;SDS011;36190;54.980;73.388;2022-07-21T14:49:45;10.15;;;4.50;;
50291;SDS011;36190;54.980;73.388;2022-07-21T14:52:12;11.15;;;6.45;;
50291;SDS011;36190;54.980;73.388;2022-07-21T14:54:39;12.65;;;6.85;;